Time;durP1;ratioP1;P1;durP2;ratioP2;P2;SDS_P1;SDS_P2;PMS_P1;PMS_P2;Temp;Humidity;BMP_temperature;BMP_pressure;BME280_temperature;BME280_humidity;BME280_pressure;Samples;Min_cycle;Max_cycle;Signal;HPM_P1;HPM_P2
2021/12/14 00:01:44;;;;;;;19.87;10.07;;;5.70;99.90;;;;;;5015456;28;20206;-89
2021/12/14 00:08:01;;;;;;;18.43;9.80;;;5.70;99.90;;;;;;5016933;28;20238;-89
2021/12/14 00:17:02;;;;;;;20.87;10.47;;;5.60;99.90;;;;;;5016728;28;20253;-89
2021/12/14 00:19:29;;;;;;;21.70;10.90;;;5.40;99.90;;;;;;5015372;28;20199;-89
2021/12/14 00:22:03;;;;;;;16.37;9.20;;;5.40;99.90;;;;;;5015450;28;20252;-89
2021/12/14 00:24:30;;;;;;;17.90;10.00;;;5.40;99.90;;;;;;5015719;28;20208;-89
2021/12/14 00:27:02;;;;;;;18.80;10.80;;;5.40;99.90;;;;;;5015602;28;20181;-89
2021/12/14 00:29:50;;;;;;;22.80;11.30;;;5.40;99.90;;;;;;5015472;28;20193;-89
2021/12/14 00:32:20;;;;;;;19.87;10.03;;;5.30;99.90;;;;;;5015316;28;20210;-89
2021/12/14 00:34:48;;;;;;;17.77;10.07;;;5.30;99.90;;;;;;5015532;28;20180;-89
2021/12/14 00:37:38;;;;;;;20.10;10.10;;;5.20;99.90;;;;;;5015064;28;20190;-89
2021/12/14 00:40:11;;;;;;;16.63;8.97;;;5.20;99.90;;;;;;5014882;28;20226;-89
2021/12/14 00:42:38;;;;;;;15.70;9.17;;;5.10;99.90;;;;;;5015187;28;20207;-89
2021/12/14 00:45:05;;;;;;;16.07;8.67;;;5.10;99.90;;;;;;5015203;28;20284;-89
2021/12/14 00:47:31;;;;;;;14.97;8.87;;;5.10;99.90;;;;;;5015209;28;20233;-89
2021/12/14 00:49:57;;;;;;;15.37;9.03;;;5.10;99.90;;;;;;5014598;28;20234;-89
2021/12/14 00:52:23;;;;;;;15.80;8.60;;;5.00;99.90;;;;;;5014777;28;20181;-89
2021/12/14 00:54:50;;;;;;;13.97;8.10;;;5.00;99.90;;;;;;5014874;28;20192;-89
2021/12/14 00:57:17;;;;;;;12.47;8.03;;;5.00;99.90;;;;;;5014986;28;20264;-89
2021/12/14 00:59:44;;;;;;;14.60;8.43;;;5.00;99.90;;;;;;5014409;28;20650;-89
2021/12/14 01:02:19;;;;;;;15.70;8.77;;;5.00;99.90;;;;;;5014251;28;20216;-90
2021/12/14 01:05:03;;;;;;;14.83;8.47;;;4.90;99.90;;;;;;5014993;28;20222;-89
2021/12/14 01:07:31;;;;;;;12.93;7.87;;;4.80;99.90;;;;;;5014762;28;20275;-89
2021/12/14 01:10:00;;;;;;;15.00;7.63;;;4.70;99.90;;;;;;5014097;28;20192;-89
2021/12/14 01:12:45;;;;;;;12.53;8.00;;;4.60;99.90;;;;;;5014510;28;20663;-89
2021/12/14 01:18:01;;;;;;;12.17;7.57;;;4.60;99.90;;;;;;5014375;28;20181;-89
2021/12/14 01:20:35;;;;;;;15.23;9.10;;;4.60;99.90;;;;;;5026957;28;20203;-89
2021/12/14 01:23:13;;;;;;;11.80;7.13;;;4.60;99.90;;;;;;5017812;28;20166;-89
2021/12/14 01:25:42;;;;;;;13.03;7.57;;;4.60;99.90;;;;;;5017583;28;20187;-89
2021/12/14 01:28:16;;;;;;;12.30;6.90;;;4.50;99.90;;;;;;5017394;28;20199;-89
2021/12/14 01:31:05;;;;;;;9.07;6.13;;;4.50;99.90;;;;;;5016488;28;20206;-89
2021/12/14 01:33:32;;;;;;;11.00;6.90;;;4.40;99.90;;;;;;5017626;28;20183;-89
2021/12/14 01:36:01;;;;;;;10.07;6.63;;;4.50;99.90;;;;;;5017539;28;20264;-89
2021/12/14 01:40:59;;;;;;;12.00;6.37;;;4.50;99.90;;;;;;5033697;28;20190;-89
2021/12/14 01:43:33;;;;;;;13.40;6.97;;;4.50;99.90;;;;;;5017952;28;20206;-89
2021/12/14 01:46:11;;;;;;;10.70;6.40;;;4.50;99.90;;;;;;5017378;28;20229;-89
2021/12/14 01:48:38;;;;;;;10.50;6.73;;;4.50;99.90;;;;;;5017045;28;20195;-89
2021/12/14 01:51:24;;;;;;;12.83;7.50;;;4.50;99.90;;;;;;5019775;28;20185;-89
2021/12/14 01:53:59;;;;;;;12.60;7.10;;;4.50;99.90;;;;;;5018447;28;20171;-89
2021/12/14 01:56:29;;;;;;;14.03;7.47;;;4.40;99.90;;;;;;5017361;28;20189;-89
2021/12/14 01:58:59;;;;;;;12.37;7.00;;;4.40;99.90;;;;;;5017146;28;20211;-89
2021/12/14 02:01:35;;;;;;;11.67;7.10;;;4.40;99.90;;;;;;5016998;28;20274;-89
2021/12/14 02:04:11;;;;;;;15.80;6.97;;;4.30;99.90;;;;;;5017078;28;20201;-89
2021/12/14 02:06:37;;;;;;;15.30;7.57;;;4.30;99.90;;;;;;5016736;28;20266;-89
2021/12/14 02:09:11;;;;;;;13.70;7.20;;;4.30;99.90;;;;;;5016434;28;20615;-89
2021/12/14 02:11:45;;;;;;;13.07;7.70;;;4.30;99.90;;;;;;5017181;28;20214;-89
2021/12/14 02:14:11;;;;;;;12.57;7.20;;;4.40;99.90;;;;;;5016375;28;20186;-89
2021/12/14 02:16:38;;;;;;;14.37;6.83;;;4.40;99.90;;;;;;5016781;28;20265;-89
2021/12/14 02:19:13;;;;;;;11.27;7.03;;;4.40;99.90;;;;;;5016260;28;20690;-89
2021/12/14 02:21:42;;;;;;;13.00;7.67;;;4.40;99.90;;;;;;5016585;28;20176;-90
2021/12/14 02:24:09;;;;;;;10.67;6.30;;;4.40;99.90;;;;;;5032865;28;20213;-89
2021/12/14 02:26:37;;;;;;;9.57;6.17;;;4.40;99.90;;;;;;5032818;28;20178;-89
2021/12/14 02:29:06;;;;;;;10.87;6.23;;;4.40;99.90;;;;;;5016537;28;20193;-89
2021/12/14 02:31:38;;;;;;;13.13;6.43;;;4.40;99.90;;;;;;5016766;28;20231;-89
2021/12/14 02:34:05;;;;;;;11.50;5.53;;;4.40;99.90;;;;;;5016264;28;20188;-88
2021/12/14 02:36:36;;;;;;;12.53;6.43;;;4.30;99.90;;;;;;5032771;28;20207;-89
2021/12/14 02:39:07;;;;;;;11.73;6.67;;;4.30;99.90;;;;;;5016218;28;20216;-89
2021/12/14 02:41:48;;;;;;;12.83;6.67;;;4.30;99.90;;;;;;5016312;28;20269;-89
2021/12/14 02:44:17;;;;;;;13.17;6.97;;;4.30;99.90;;;;;;5032847;28;20276;-89
2021/12/14 02:46:47;;;;;;;14.63;6.90;;;4.30;99.90;;;;;;5016118;28;20186;-89
2021/12/14 02:49:18;;;;;;;13.83;7.23;;;4.30;99.90;;;;;;5015850;28;20223;-89
2021/12/14 02:51:52;;;;;;;26.53;7.47;;;4.30;99.90;;;;;;5016481;28;20176;-89
2021/12/14 02:54:37;;;;;;;13.80;6.87;;;4.20;99.90;;;;;;5016111;28;20250;-89
2021/12/14 02:57:12;;;;;;;12.40;6.57;;;4.20;99.90;;;;;;5016001;28;20175;-89
2021/12/14 02:59:41;;;;;;;10.67;7.27;;;4.20;99.90;;;;;;5016018;28;20207;-89
2021/12/14 03:02:12;;;;;;;12.07;7.03;;;4.20;99.90;;;;;;5016218;28;20214;-89
2021/12/14 03:04:53;;;;;;;14.67;7.33;;;4.20;99.90;;;;;;5016121;28;20253;-89
2021/12/14 03:07:22;;;;;;;14.20;7.63;;;4.20;99.90;;;;;;5015894;28;20261;-89
2021/12/14 03:10:01;;;;;;;15.23;7.30;;;4.20;99.90;;;;;;5015597;28;20282;-89
2021/12/14 03:12:39;;;;;;;12.93;6.97;;;4.20;99.90;;;;;;5015747;28;20171;-89
2021/12/14 03:15:13;;;;;;;14.43;6.80;;;4.20;99.90;;;;;;5032711;28;20178;-89
2021/12/14 03:17:43;;;;;;;13.60;7.00;;;4.20;99.90;;;;;;5015708;28;20173;-89
2021/12/14 03:20:22;;;;;;;16.70;6.50;;;4.20;99.90;;;;;;5015527;28;20287;-89
2021/12/14 03:22:48;;;;;;;9.70;5.60;;;4.20;99.90;;;;;;5032012;28;20184;-89
2021/12/14 03:25:21;;;;;;;11.87;5.60;;;4.10;99.90;;;;;;5016493;28;20221;-89
2021/12/14 03:27:51;;;;;;;11.67;5.10;;;4.10;99.90;;;;;;5022193;28;20178;-89
2021/12/14 03:30:26;;;;;;;10.67;5.87;;;4.00;99.90;;;;;;5021900;28;20228;-89
2021/12/14 03:33:01;;;;;;;12.87;5.87;;;4.00;99.90;;;;;;5022095;28;20176;-89
2021/12/14 03:35:42;;;;;;;9.50;6.00;;;4.00;99.90;;;;;;5022701;28;20208;-89
2021/12/14 03:38:16;;;;;;;9.83;5.73;;;4.00;99.90;;;;;;5022409;28;20166;-89
2021/12/14 03:40:43;;;;;;;9.70;6.37;;;3.90;99.90;;;;;;5022068;28;20187;-89
2021/12/14 03:43:14;;;;;;;10.63;6.60;;;3.90;99.90;;;;;;5022287;28;20202;-89
2021/12/14 03:45:42;;;;;;;12.20;6.37;;;3.90;99.90;;;;;;5022247;28;20175;-89
2021/12/14 03:48:10;;;;;;;17.77;7.43;;;4.00;99.90;;;;;;5022018;28;20174;-89
2021/12/14 03:50:42;;;;;;;9.97;5.73;;;4.00;99.90;;;;;;5022158;28;20175;-89
2021/12/14 03:53:11;;;;;;;11.00;6.80;;;3.90;99.90;;;;;;5022043;28;20225;-89
2021/12/14 03:55:44;;;;;;;11.80;6.60;;;4.00;99.90;;;;;;5038333;28;20517;-89
2021/12/14 03:58:16;;;;;;;12.23;6.93;;;4.00;99.90;;;;;;5021988;28;20202;-89
2021/12/14 04:00:47;;;;;;;11.37;6.30;;;4.00;99.90;;;;;;5022036;28;20175;-89
2021/12/14 04:03:16;;;;;;;12.67;6.93;;;4.00;99.90;;;;;;5038702;28;20195;-89
2021/12/14 04:05:58;;;;;;;22.03;7.27;;;4.10;99.90;;;;;;5024425;28;20175;-89
2021/12/14 04:08:26;;;;;;;13.80;7.10;;;4.00;99.90;;;;;;5021793;28;20664;-89
2021/12/14 04:10:54;;;;;;;17.13;7.30;;;4.00;99.90;;;;;;5021789;28;20317;-89
2021/12/14 04:13:25;;;;;;;15.47;6.90;;;4.00;99.90;;;;;;5021931;28;20182;-89
2021/12/14 04:15:53;;;;;;;23.53;7.77;;;4.00;99.90;;;;;;5022409;28;20173;-89
2021/12/14 04:18:20;;;;;;;16.70;8.23;;;4.00;99.90;;;;;;5021603;28;20198;-89
2021/12/14 04:20:52;;;;;;;12.97;7.63;;;4.10;99.90;;;;;;5038088;28;20219;-89
2021/12/14 04:23:24;;;;;;;9.83;6.20;;;4.00;99.90;;;;;;5018817;28;20198;-89
2021/12/14 04:25:54;;;;;;;14.03;7.03;;;4.00;99.90;;;;;;5002376;28;20338;-89
2021/12/14 04:28:24;;;;;;;15.10;7.37;;;3.90;99.90;;;;;;5002097;28;20176;-89
2021/12/14 04:31:08;;;;;;;13.47;5.90;;;3.80;99.90;;;;;;5001815;28;20262;-89
2021/12/14 04:33:37;;;;;;;19.60;6.03;;;3.90;99.90;;;;;;5001821;28;20190;-89
2021/12/14 04:36:44;;;;;;;10.30;5.33;;;3.80;99.90;;;;;;5001929;28;20183;-89
2021/12/14 04:53:10;;;;;;;10.10;6.20;;;3.60;99.90;;;;;;5034583;28;20182;-89
2021/12/14 04:55:42;;;;;;;12.30;6.83;;;3.60;99.90;;;;;;5018504;28;20174;-89
2021/12/14 04:58:10;;;;;;;17.77;7.10;;;3.70;99.90;;;;;;5017975;28;20181;-88
2021/12/14 05:01:25;;;;;;;11.93;6.33;;;3.60;99.90;;;;;;5017030;28;20179;-89
2021/12/14 05:04:44;;;;;;;17.13;7.90;;;3.60;99.90;;;;;;4998511;28;20601;-89
2021/12/14 05:09:55;;;;;;;16.87;6.63;;;3.70;99.90;;;;;;5014274;28;20206;-89
2021/12/14 05:12:28;;;;;;;22.67;6.47;;;3.70;99.90;;;;;;5031128;28;20179;-89
2021/12/14 05:15:41;;;;;;;17.00;6.73;;;3.60;99.90;;;;;;5029216;28;20175;-89
2021/12/14 05:18:14;;;;;;;14.40;6.63;;;3.60;99.90;;;;;;5030623;28;20179;-89
2021/12/14 05:20:43;;;;;;;11.80;5.53;;;3.60;99.90;;;;;;5032089;28;20207;-89
2021/12/14 05:23:22;;;;;;;10.03;5.60;;;3.60;99.90;;;;;;5018066;28;20171;-89
2021/12/14 05:25:49;;;;;;;9.90;5.90;;;3.60;99.90;;;;;;5016406;28;20170;-89
2021/12/14 05:28:19;;;;;;;11.77;5.30;;;3.60;99.90;;;;;;5013668;28;20175;-89
2021/12/14 05:30:50;;;;;;;12.60;5.77;;;3.60;99.90;;;;;;5017966;28;20173;-88
2021/12/14 05:33:32;;;;;;;15.53;8.60;;;3.60;99.90;;;;;;5019596;28;20257;-89
2021/12/14 05:36:09;;;;;;;13.43;7.63;;;3.50;99.90;;;;;;5017761;28;20705;-89
2021/12/14 05:44:25;;;;;;;21.17;10.53;;;3.40;99.90;;;;;;5033891;28;20214;-89
2021/12/14 05:46:55;;;;;;;15.07;7.73;;;3.40;99.90;;;;;;5016986;28;20183;-89
2021/12/14 05:49:48;;;;;;;13.83;6.97;;;3.40;99.90;;;;;;5029191;28;20202;-89
2021/12/14 05:52:27;;;;;;;18.63;8.67;;;3.40;99.90;;;;;;5017331;28;20591;-89
2021/12/14 05:54:57;;;;;;;12.73;7.47;;;3.40;99.90;;;;;;5017604;28;20674;-89
2021/12/14 05:57:26;;;;;;;13.13;7.00;;;3.50;99.90;;;;;;5016880;28;20210;-89
2021/12/14 06:00:10;;;;;;;12.50;7.53;;;3.50;99.90;;;;;;5011293;28;20245;-90
2021/12/14 06:02:44;;;;;;;10.10;6.60;;;3.50;99.90;;;;;;5012952;28;20192;-89
2021/12/14 06:05:17;;;;;;;10.97;6.83;;;3.50;99.90;;;;;;5013597;28;20207;-89
2021/12/14 06:07:44;;;;;;;10.10;6.47;;;3.50;99.90;;;;;;5014001;28;20167;-89
2021/12/14 06:10:12;;;;;;;10.17;6.83;;;3.40;99.90;;;;;;5013120;28;20195;-89
2021/12/14 06:12:43;;;;;;;10.37;7.40;;;3.30;99.90;;;;;;5013054;28;20171;-89
2021/12/14 06:15:17;;;;;;;10.93;6.93;;;3.20;99.90;;;;;;5045405;28;20182;-89
2021/12/14 06:17:44;;;;;;;11.47;7.07;;;3.20;99.90;;;;;;5036645;28;20261;-89
2021/12/14 06:20:28;;;;;;;11.00;6.97;;;3.20;99.90;;;;;;5038683;28;20197;-88
2021/12/14 06:26:19;;;;;;;10.50;7.43;;;3.20;99.90;;;;;;5053259;28;20189;-88
2021/12/14 06:28:45;;;;;;;12.13;9.43;;;3.20;99.90;;;;;;5035849;28;20206;-89
2021/12/14 06:31:12;;;;;;;12.13;8.90;;;3.20;99.90;;;;;;5036123;28;20177;-88
2021/12/14 06:33:39;;;;;;;9.67;7.00;;;3.30;99.90;;;;;;5036406;28;20264;-88
2021/12/14 06:36:30;;;;;;;9.40;6.57;;;3.30;99.90;;;;;;5035957;28;20273;-88
2021/12/14 06:39:05;;;;;;;9.70;6.50;;;3.30;99.90;;;;;;5035620;28;20213;-89
2021/12/14 06:41:31;;;;;;;8.97;6.63;;;3.30;99.90;;;;;;5036326;28;20260;-90
2021/12/14 06:43:59;;;;;;;9.17;6.50;;;3.30;99.90;;;;;;5036472;28;20201;-89
2021/12/14 06:46:29;;;;;;;8.67;5.70;;;3.30;99.90;;;;;;5036360;28;20205;-88
2021/12/14 06:49:14;;;;;;;7.97;6.43;;;3.30;99.90;;;;;;5035587;28;20229;-88
2021/12/14 06:51:48;;;;;;;8.27;5.87;;;3.30;99.90;;;;;;5036057;28;20189;-88
2021/12/14 06:54:28;;;;;;;7.80;6.07;;;3.30;99.90;;;;;;5037294;28;20228;-88
2021/12/14 06:57:02;;;;;;;7.23;6.10;;;3.20;99.90;;;;;;5052408;28;20193;-88
2021/12/14 06:59:34;;;;;;;7.80;6.33;;;3.20;99.90;;;;;;5036226;28;20256;-89
2021/12/14 07:02:11;;;;;;;7.67;6.17;;;3.30;99.90;;;;;;5051104;28;20173;-89
2021/12/14 07:05:07;;;;;;;7.23;5.93;;;3.20;99.90;;;;;;5052191;28;20214;-89
2021/12/14 07:07:39;;;;;;;8.00;6.43;;;3.20;99.90;;;;;;5036715;28;20170;-89
2021/12/14 07:10:11;;;;;;;7.97;6.40;;;3.20;99.90;;;;;;5035988;28;20284;-89
2021/12/14 07:12:38;;;;;;;7.43;5.70;;;3.10;99.90;;;;;;5035692;28;20224;-88
2021/12/14 07:15:15;;;;;;;7.20;5.80;;;3.20;99.90;;;;;;5035563;28;20189;-89
2021/12/14 07:17:48;;;;;;;7.97;5.83;;;3.20;99.90;;;;;;5035611;28;20212;-89
2021/12/14 07:20:21;;;;;;;8.63;6.53;;;3.20;99.90;;;;;;5035529;28;20194;-89
2021/12/14 07:22:54;;;;;;;11.47;8.00;;;3.20;99.90;;;;;;5035709;28;20252;-89
2021/12/14 07:25:23;;;;;;;11.50;7.90;;;3.20;99.90;;;;;;5035565;28;20252;-89
2021/12/14 07:27:53;;;;;;;10.70;7.20;;;3.20;99.90;;;;;;5035341;28;20181;-89
2021/12/14 07:30:21;;;;;;;12.30;8.47;;;3.20;99.90;;;;;;5035272;28;20201;-89
2021/12/14 07:33:00;;;;;;;10.63;7.47;;;3.20;99.90;;;;;;5035169;28;20182;-89
2021/12/14 07:35:31;;;;;;;10.33;6.80;;;3.20;99.90;;;;;;5035667;28;20193;-89
2021/12/14 07:38:01;;;;;;;9.90;6.60;;;3.20;99.90;;;;;;5035594;28;20173;-89
2021/12/14 07:40:50;;;;;;;8.80;5.90;;;3.20;99.90;;;;;;5035292;28;20283;-89
2021/12/14 07:43:25;;;;;;;7.83;5.50;;;3.10;99.90;;;;;;5035452;28;20174;-89
2021/12/14 07:45:52;;;;;;;6.97;5.33;;;3.10;99.90;;;;;;5035261;28;20272;-89
2021/12/14 07:48:21;;;;;;;8.73;6.10;;;3.00;99.90;;;;;;5034972;28;20170;-89
2021/12/14 07:50:56;;;;;;;9.30;6.07;;;3.00;99.90;;;;;;5034988;28;20182;-88
2021/12/14 07:53:31;;;;;;;8.63;6.00;;;3.00;99.90;;;;;;5035113;28;20178;-89
2021/12/14 07:55:57;;;;;;;8.07;5.87;;;3.00;99.90;;;;;;5035213;28;20181;-89
2021/12/14 07:58:39;;;;;;;8.47;6.13;;;3.00;99.90;;;;;;5035261;28;20178;-89
2021/12/14 08:01:56;;;;;;;8.77;5.80;;;3.10;99.90;;;;;;5034673;28;20177;-88
2021/12/14 08:04:32;;;;;;;10.23;7.00;;;3.10;99.90;;;;;;5035011;28;20205;-88
2021/12/14 08:06:58;;;;;;;9.37;6.17;;;3.10;99.90;;;;;;5035007;28;20220;-89
2021/12/14 08:09:50;;;;;;;8.67;6.47;;;3.00;99.90;;;;;;5034509;28;20233;-88
2021/12/14 08:12:46;;;;;;;8.37;6.10;;;3.00;99.90;;;;;;5035910;28;20269;-89
2021/12/14 08:15:19;;;;;;;8.17;5.77;;;2.90;99.90;;;;;;5021103;28;20191;-89
2021/12/14 08:17:58;;;;;;;8.47;6.37;;;2.90;99.90;;;;;;5019093;28;20186;-89
2021/12/14 08:20:26;;;;;;;7.93;5.80;;;3.00;99.90;;;;;;5018878;28;20199;-89
2021/12/14 08:22:53;;;;;;;8.00;5.73;;;3.00;99.90;;;;;;5019092;28;20516;-89
2021/12/14 08:25:26;;;;;;;8.63;6.57;;;3.10;99.90;;;;;;5018607;28;20210;-89
2021/12/14 08:28:01;;;;;;;10.43;7.40;;;3.10;99.90;;;;;;5018904;28;20190;-88
2021/12/14 08:30:30;;;;;;;8.33;6.00;;;3.00;99.90;;;;;;5018378;28;20194;-88
2021/12/14 08:32:56;;;;;;;8.60;6.33;;;3.00;99.90;;;;;;5018615;28;20182;-88
2021/12/14 08:35:22;;;;;;;8.70;6.30;;;2.90;99.90;;;;;;5018542;28;20218;-89
2021/12/14 08:37:57;;;;;;;7.00;5.77;;;2.90;99.90;;;;;;5018748;28;20183;-89
2021/12/14 08:40:24;;;;;;;8.60;6.50;;;2.80;99.90;;;;;;5018462;28;20214;-88
2021/12/14 08:43:08;;;;;;;10.57;6.60;;;2.90;99.90;;;;;;5018756;28;20210;-84
2021/12/14 08:46:07;;;;;;;7.50;6.37;;;2.90;99.90;;;;;;5018423;28;20216;-88
2021/12/14 08:48:41;;;;;;;10.43;7.30;;;2.90;99.90;;;;;;5016800;28;20211;-89
2021/12/14 08:51:15;;;;;;;10.10;7.10;;;3.00;99.90;;;;;;5018501;28;20237;-89
2021/12/14 08:56:58;;;;;;;9.77;7.17;;;3.20;99.90;;;;;;5034824;28;20205;-89
2021/12/14 08:59:32;;;;;;;12.43;8.97;;;3.40;99.90;;;;;;5017774;28;20213;-89
2021/12/14 09:02:02;;;;;;;10.33;8.30;;;3.40;99.90;;;;;;5018389;28;20186;-89
2021/12/14 09:04:37;;;;;;;10.10;7.20;;;3.50;99.90;;;;;;5017955;28;20199;-89
2021/12/14 09:07:11;;;;;;;8.20;6.10;;;3.60;99.90;;;;;;5009693;28;20261;-89
2021/12/14 09:13:04;;;;;;;9.13;6.03;;;3.70;99.90;;;;;;5031415;28;20172;-89
2021/12/14 09:15:59;;;;;;;6.77;5.20;;;3.90;99.90;;;;;;5017974;28;20183;-88
2021/12/14 09:18:28;;;;;;;6.70;5.83;;;3.90;99.90;;;;;;5017576;28;20183;-88
2021/12/14 09:21:07;;;;;;;6.27;5.27;;;3.90;99.90;;;;;;5002794;28;20191;-88
2021/12/14 09:24:00;;;;;;;7.73;6.33;;;4.00;99.90;;;;;;5014950;28;20568;-88
2021/12/14 09:26:34;;;;;;;10.83;6.97;;;4.10;99.90;;;;;;5014898;28;20195;-88
2021/12/14 09:29:24;;;;;;;9.20;7.00;;;4.20;99.90;;;;;;5015445;28;20199;-88
2021/12/14 09:31:53;;;;;;;7.37;5.43;;;4.20;99.90;;;;;;5034236;28;20175;-88
2021/12/14 09:34:26;;;;;;;8.50;5.90;;;4.20;99.90;;;;;;5034111;28;20180;-88
2021/12/14 09:36:53;;;;;;;9.37;6.80;;;4.30;99.90;;;;;;5033561;28;20682;-88
2021/12/14 09:39:25;;;;;;;10.53;6.60;;;4.30;99.90;;;;;;5032747;28;20231;-88
2021/12/14 09:41:53;;;;;;;12.83;8.33;;;4.30;99.90;;;;;;5032964;28;20182;-88
2021/12/14 09:44:25;;;;;;;13.97;8.57;;;4.40;99.90;;;;;;5014315;28;20203;-88
2021/12/14 09:47:39;;;;;;;14.83;9.30;;;4.40;99.90;;;;;;5026339;28;20215;-88
2021/12/14 09:50:11;;;;;;;10.37;7.50;;;4.50;99.90;;;;;;5030579;28;20251;-87
2021/12/14 09:53:05;;;;;;;8.20;6.30;;;4.60;99.90;;;;;;5016993;28;20181;-88
2021/12/14 09:55:34;;;;;;;10.17;7.00;;;4.70;99.90;;;;;;5033305;28;20207;-88
2021/12/14 09:58:09;;;;;;;9.63;7.10;;;4.60;99.90;;;;;;5017353;28;20174;-88
2021/12/14 10:00:45;;;;;;;10.40;6.80;;;4.70;99.90;;;;;;5032641;28;20336;-88
2021/12/14 10:03:13;;;;;;;13.00;8.83;;;4.80;99.90;;;;;;5016665;28;20249;-88
2021/12/14 10:06:04;;;;;;;27.33;19.37;;;4.70;99.90;;;;;;5016210;28;20192;-88
2021/12/14 10:08:36;;;;;;;9.67;7.47;;;4.70;99.90;;;;;;5015412;28;20245;-88
2021/12/14 10:11:34;;;;;;;34.33;22.70;;;4.70;99.90;;;;;;5014234;28;20255;-88
2021/12/14 10:14:00;;;;;;;15.27;11.17;;;4.70;99.90;;;;;;5014189;28;20170;-88
2021/12/14 10:23:47;;;;;;;21.70;14.27;;;4.90;99.90;;;;;;5021358;28;20221;-88
2021/12/14 10:26:18;;;;;;;10.50;8.27;;;5.10;99.90;;;;;;5016717;28;20230;-88
2021/12/14 10:28:54;;;;;;;9.73;6.93;;;5.20;99.90;;;;;;5016489;28;20201;-89
2021/12/14 10:31:32;;;;;;;9.33;7.50;;;5.40;99.90;;;;;;5016319;28;20177;-88
2021/12/14 10:34:39;;;;;;;8.87;7.17;;;5.50;99.90;;;;;;5049315;28;20173;-90
2021/12/14 10:37:19;;;;;;;10.73;7.53;;;5.50;99.90;;;;;;5016715;28;20275;-89
2021/12/14 10:42:54;;;;;;;8.47;6.37;;;5.80;99.90;;;;;;5032838;28;20181;-88
2021/12/14 10:45:25;;;;;;;6.90;5.33;;;5.90;99.90;;;;;;5032912;28;20284;-88
2021/12/14 10:47:52;;;;;;;8.33;5.47;;;6.10;99.90;;;;;;4996697;28;20284;-89
2021/12/14 10:50:26;;;;;;;6.27;5.47;;;6.20;99.90;;;;;;5012588;28;20281;-88
2021/12/14 10:52:52;;;;;;;8.07;5.67;;;6.30;99.90;;;;;;5012719;28;20698;-90
2021/12/14 10:55:31;;;;;;;6.87;5.57;;;6.30;99.90;;;;;;5012744;28;20191;-90
2021/12/14 10:57:57;;;;;;;6.80;5.90;;;6.40;99.90;;;;;;5012839;28;20182;-90
2021/12/14 11:00:31;;;;;;;6.80;5.83;;;6.50;99.90;;;;;;5012894;28;20202;-90
2021/12/14 11:03:28;;;;;;;5.83;5.27;;;6.50;99.90;;;;;;5013266;28;20178;-90
2021/12/14 11:05:57;;;;;;;13.13;9.20;;;6.60;99.90;;;;;;5032127;28;20191;-90
2021/12/14 11:08:48;;;;;;;17.37;11.83;;;6.60;99.90;;;;;;5015176;28;20236;-89
2021/12/14 11:11:20;;;;;;;7.57;5.50;;;6.60;99.90;;;;;;5033044;28;20175;-89
2021/12/14 11:13:53;;;;;;;7.33;6.53;;;6.60;99.90;;;;;;5016394;28;20172;-90
2021/12/14 11:18:07;;;;;;;7.67;6.10;;;6.70;99.90;;;;;;5016042;28;20166;-90
2021/12/14 11:19:15;;;;;;;6.40;5.00;;;6.80;99.90;;;;;;5031975;28;20224;-90
2021/12/14 11:21:41;;;;;;;6.60;5.13;;;6.90;99.90;;;;;;5016499;28;20261;-90
2021/12/14 11:24:07;;;;;;;6.17;5.10;;;7.10;99.90;;;;;;5032172;28;20213;-90
2021/12/14 11:26:35;;;;;;;6.10;4.87;;;7.20;99.90;;;;;;5029204;28;20181;-90
2021/12/14 11:29:08;;;;;;;5.40;4.90;;;7.30;99.90;;;;;;5008557;28;20217;-90
2021/12/14 11:31:45;;;;;;;5.57;4.50;;;7.50;99.90;;;;;;5016234;28;20181;-90
2021/12/14 11:34:36;;;;;;;5.80;4.73;;;7.50;99.90;;;;;;5032804;28;20178;-86
2021/12/14 11:37:08;;;;;;;5.43;4.57;;;7.60;99.90;;;;;;5016419;28;20175;-92
2021/12/14 11:39:52;;;;;;;5.60;4.30;;;7.70;99.90;;;;;;5016101;28;20245;-91
2021/12/14 11:42:26;;;;;;;5.87;4.60;;;7.80;99.90;;;;;;5016391;28;20253;-90
2021/12/14 11:45:06;;;;;;;5.20;4.70;;;7.80;99.90;;;;;;5017242;28;20241;-90
2021/12/14 11:50:12;;;;;;;6.97;5.10;;;7.90;99.90;;;;;;5037155;28;20205;-91
2021/12/14 11:53:05;;;;;;;9.07;5.07;;;8.00;99.90;;;;;;5019957;28;20207;-91
2021/12/14 11:55:36;;;;;;;5.93;4.87;;;8.10;99.90;;;;;;5021120;28;20209;-91
2021/12/14 11:58:16;;;;;;;4.87;4.30;;;8.20;99.90;;;;;;5020510;28;20182;-90
2021/12/14 12:01:03;;;;;;;9.77;4.60;;;8.30;99.90;;;;;;5020233;28;20178;-91
2021/12/14 12:03:56;;;;;;;4.27;3.87;;;8.40;99.90;;;;;;4999877;28;20195;-91
2021/12/14 12:09:28;;;;;;;6.07;4.60;;;8.50;99.90;;;;;;5036596;28;20205;-90
2021/12/14 12:12:03;;;;;;;5.97;4.67;;;8.50;99.90;;;;;;5020042;28;20269;-91
2021/12/14 12:14:59;;;;;;;5.67;4.10;;;8.60;99.90;;;;;;5020233;28;20177;-90
2021/12/14 12:17:28;;;;;;;5.17;4.37;;;8.70;99.90;;;;;;5020038;28;20179;-90
2021/12/14 12:20:04;;;;;;;7.77;4.73;;;8.70;99.90;;;;;;5019442;28;20198;-91
2021/12/14 12:22:59;;;;;;;4.37;3.97;;;8.80;99.90;;;;;;5036509;28;20182;-87
2021/12/14 12:25:33;;;;;;;6.07;4.87;;;8.90;99.90;;;;;;5019722;28;20214;-91
2021/12/14 12:28:05;;;;;;;5.13;4.10;;;9.00;99.90;;;;;;5016210;28;20175;-91
2021/12/14 12:30:46;;;;;;;4.33;3.70;;;9.10;99.90;;;;;;5018843;28;20203;-90
2021/12/14 12:33:50;;;;;;;6.53;4.00;;;9.10;99.90;;;;;;5036116;28;20171;-91
2021/12/14 12:36:35;;;;;;;5.87;4.43;;;9.10;99.90;;;;;;4979379;28;20226;-91
2021/12/14 12:39:17;;;;;;;4.13;3.43;;;9.10;99.90;;;;;;5017581;28;20215;-91
2021/12/14 12:41:48;;;;;;;4.57;3.90;;;9.00;99.90;;;;;;5016141;28;20302;-91
2021/12/14 12:44:27;;;;;;;4.00;3.50;;;9.00;99.90;;;;;;5022017;28;20202;-91
2021/12/14 12:47:22;;;;;;;4.67;3.70;;;9.00;99.90;;;;;;5018933;28;20166;-91
2021/12/14 12:49:54;;;;;;;4.80;3.70;;;9.00;99.90;;;;;;5019151;28;20186;-91
2021/12/14 12:52:26;;;;;;;6.13;3.80;;;8.90;99.90;;;;;;5019147;28;20221;-91
2021/12/14 12:55:11;;;;;;;6.47;4.00;;;8.80;99.90;;;;;;5018882;28;20624;-91
2021/12/14 12:58:10;;;;;;;4.33;3.67;;;8.70;99.90;;;;;;5034909;28;20178;-91
2021/12/14 13:00:51;;;;;;;8.50;6.30;;;8.80;99.90;;;;;;5019138;28;20176;-91
2021/12/14 13:03:26;;;;;;;6.43;4.20;;;8.80;99.90;;;;;;5019316;28;20186;-91
2021/12/14 13:05:56;;;;;;;4.97;3.80;;;8.80;99.90;;;;;;5018825;28;20170;-91
2021/12/14 13:08:57;;;;;;;4.87;3.83;;;8.90;99.90;;;;;;5018274;28;20262;-89
2021/12/14 13:11:35;;;;;;;6.80;3.67;;;8.90;99.90;;;;;;5028637;28;20430;-91
2021/12/14 13:14:09;;;;;;;4.87;3.60;;;9.00;99.90;;;;;;5034744;28;20209;-91
2021/12/14 13:16:43;;;;;;;5.73;3.37;;;9.00;99.90;;;;;;5034402;28;20174;-91
2021/12/14 13:19:18;;;;;;;5.17;3.50;;;9.00;99.90;;;;;;5034869;28;20203;-91
2021/12/14 13:24:56;;;;;;;6.67;4.73;;;9.20;99.90;;;;;;5034751;28;20206;-91
2021/12/14 13:27:24;;;;;;;5.50;4.00;;;9.20;99.90;;;;;;5034892;28;20313;-90
2021/12/14 13:29:53;;;;;;;6.37;4.33;;;9.20;99.90;;;;;;5017928;28;20210;-90
2021/12/14 13:32:32;;;;;;;5.80;4.27;;;9.20;99.90;;;;;;5018107;28;20179;-91
2021/12/14 13:35:08;;;;;;;6.77;5.27;;;9.20;99.90;;;;;;5018578;28;20228;-91
2021/12/14 13:37:50;;;;;;;7.63;5.63;;;9.20;99.90;;;;;;4999025;28;20177;-91
2021/12/14 13:40:22;;;;;;;5.73;4.80;;;9.20;99.90;;;;;;5000228;28;20226;-91
2021/12/14 13:43:07;;;;;;;4.60;3.93;;;9.20;99.90;;;;;;5018839;28;20175;-89
2021/12/14 13:45:39;;;;;;;5.43;3.60;;;9.20;99.90;;;;;;5011019;28;20203;-90
2021/12/14 13:48:08;;;;;;;4.37;3.93;;;9.20;99.90;;;;;;5014483;28;20178;-90
2021/12/14 13:50:44;;;;;;;4.83;3.83;;;9.10;99.90;;;;;;5031395;28;20242;-90
2021/12/14 13:53:15;;;;;;;4.40;3.47;;;9.10;99.90;;;;;;5017763;28;20215;-89
2021/12/14 13:56:04;;;;;;;4.27;3.73;;;9.00;99.90;;;;;;5017835;28;20179;-90
2021/12/14 13:58:32;;;;;;;3.87;3.43;;;8.90;99.90;;;;;;5027487;28;20310;-89
2021/12/14 14:01:06;;;;;;;5.37;3.53;;;8.90;99.90;;;;;;5029609;28;20229;-90
2021/12/14 14:03:38;;;;;;;4.23;3.53;;;8.90;99.90;;;;;;5034231;28;20198;-88
2021/12/14 14:06:12;;;;;;;4.50;3.40;;;8.90;99.90;;;;;;5034104;28;20250;-90
2021/12/14 14:08:46;;;;;;;3.40;3.10;;;8.90;99.90;;;;;;5032203;28;20321;-89
2021/12/14 14:11:22;;;;;;;5.13;4.00;;;8.90;99.90;;;;;;5026362;28;20163;-89
2021/12/14 14:13:53;;;;;;;3.90;3.50;;;8.90;99.90;;;;;;5027377;28;20257;-89
2021/12/14 14:16:19;;;;;;;4.67;3.60;;;8.90;99.90;;;;;;5016431;28;20183;-89
2021/12/14 14:18:50;;;;;;;4.83;4.03;;;8.90;99.90;;;;;;5016607;28;20218;-90
2021/12/14 14:21:26;;;;;;;5.00;3.50;;;8.90;99.90;;;;;;5017016;28;20175;-90
2021/12/14 14:23:52;;;;;;;4.57;3.70;;;8.90;99.90;;;;;;5016650;28;20207;-89
2021/12/14 14:26:37;;;;;;;5.50;4.13;;;8.90;99.90;;;;;;5024224;28;20181;-90
2021/12/14 14:29:16;;;;;;;5.40;3.90;;;8.80;99.90;;;;;;5020840;28;20233;-90
2021/12/14 14:31:52;;;;;;;5.27;3.83;;;8.70;99.90;;;;;;5018649;28;20174;-90
2021/12/14 14:34:46;;;;;;;4.53;3.70;;;8.70;99.90;;;;;;5033360;28;20187;-90
2021/12/14 14:37:16;;;;;;;5.50;3.67;;;8.60;99.90;;;;;;5015977;28;20269;-90
2021/12/14 14:39:51;;;;;;;3.87;3.40;;;8.60;99.90;;;;;;5016278;28;20214;-90